Flight Track Log - Related Links

Times and Time Zones

All times are in EDT time to prevent confusion due to time zone crossing. See the DAL268 flight status page for this flight to view local times or setup timezone preferences in your user account.

Time Position Orientation Groundspeed Altitude Reporting Facility
EDT Latitude Longitude Course Direction KTS km/h feet Rate Location/Type
Sat 14:27:12 37.6141 -122.3760 360° North 125 232  Level FlightAware ADS-B
Sat 14:27:29 37.6244 -122.3690 28° Northeast 177 328 200 1.333 Climbing FlightAware ADS-B
Sat 14:27:39 37.6319 -122.3640 28° Northeast 172 319 600 2.308 Climbing FlightAware ADS-B
Sat 14:27:42 37.6340 -122.3620 37° Northeast 175 323 700 2.667 Climbing FlightAware ADS-B
Sat 14:27:48 37.6376 -122.3580 41° Northeast 177 328 1.000 2.727 Climbing FlightAware ADS-B
Sat 14:27:53 37.6397 -122.3550 49° Northeast 175 323 1.200 3.000 Climbing FlightAware ADS-B
Sat 14:27:56 37.6414 -122.3520 54° Northeast 172 319 1.400 3.429 Climbing FlightAware ADS-B
Sat 14:28:00 37.6435 -122.3490 49° Northeast 173 320 1.600 2.100 Climbing FlightAware ADS-B
Sat 14:28:16 37.6521 -122.3370 48° Northeast 176 327 2.100 2.063 Climbing FlightAware ADS-B
Sat 14:28:32 37.6609 -122.3250 47° Northeast 177 328 2.700 2.276 Climbing FlightAware ADS-B
Sat 14:28:45 37.6681 -122.3150 48° Northeast 181 335 3.200 1.548 Climbing FlightAware ADS-B
Sat 14:29:03 37.6790 -122.2990 49° Northeast 205 380 3.500 1.091 Climbing FlightAware ADS-B
Sat 14:29:18 37.6894 -122.2850 47° Northeast 223 414 3.800 1.200 Climbing FlightAware ADS-B
Sat 14:29:38 37.7044 -122.2640 48° Northeast 258 478 4.200 1.500 Climbing FlightAware ADS-B
Sat 14:29:54 37.7178 -122.2460 47° Northeast 273 505 4.700 2.500 Climbing FlightAware ADS-B
Sat 14:30:14 37.7351 -122.2220 48° Northeast 274 507 5.700 2.850 Climbing FlightAware ADS-B
Sat 14:30:34 37.7537 -122.2000 43° Northeast 280 518 6.600 2.690 Climbing FlightAware ADS-B
Sat 14:30:43 37.7633 -122.1910 37° Northeast 285 528 7.000 2.308 Climbing FlightAware ADS-B
Sat 14:31:00 37.7812 -122.1730 38° Northeast 294 544 7.600 2.294 Climbing FlightAware ADS-B
Sat 14:31:17 37.7990 -122.1560 37° Northeast 296 549 8.300 2.438 Climbing FlightAware ADS-B
Sat 14:31:32 37.8158 -122.1400 37° Northeast 301 557 8.900 2.400 Climbing FlightAware ADS-B
Sat 14:31:47 37.8332 -122.1240 36° Northeast 307 568 9.500 2.133 Climbing FlightAware ADS-B
Sat 14:32:17 37.8684 -122.0910 37° Northeast 323 599 10.500 1.700 Climbing FlightAware ADS-B
Sat 14:32:47 37.9063 -122.0560 36° Northeast 348 644 11.200 1.800 Climbing FlightAware ADS-B
Sat 14:33:17 37.9463 -122.0190 36° Northeast 357 661 12.300 2.226 Climbing FlightAware ADS-B
Sat 14:33:49 37.9879 -121.9800 36° Northeast 361 668 13.500 2.217 Climbing FlightAware ADS-B
Sat 14:34:49 38.0701 -121.9030 36° Northeast 366 678 15.700 1.953 Climbing FlightAware ADS-B
Sat 14:35:15 38.1062 -121.8680 37° Northeast 387 716 16.300 1.147 Climbing FlightAware ADS-B
Sat 14:35:57 38.1571 -121.7900 50° Northeast 419 776 17.000 1.200 Climbing FlightAware ADS-B
Sat 14:36:30 38.1926 -121.7220 56° Northeast 429 795 17.800 1.688 Climbing FlightAware ADS-B
Sat 14:37:01 38.2267 -121.6570 56° Northeast 435 806 18.800 1.770 Climbing FlightAware ADS-B
Sat 14:37:31 38.2604 -121.5930 56° Northeast 442 819 19.600 1.726 Climbing FlightAware ADS-B
Sat 14:38:14 38.3070 -121.5030 57° Northeast 447 827 20.900 1.791 Climbing FlightAware ADS-B
Sat 14:38:38 38.3370 -121.4460 56° Northeast 452 837 21.600 1.745 Climbing FlightAware ADS-B
Sat 14:39:09 38.3734 -121.3770 56° Northeast 458 848 22.500 1.519 Climbing FlightAware ADS-B
Sat 14:39:57 38.4300 -121.2700 56° Northeast 467 864 23.600 1.500 Climbing FlightAware ADS-B
Sat 14:40:09 38.4451 -121.2410 56° Northeast 460 851 24.000 1.535 Climbing FlightAware ADS-B
Sat 14:40:40 38.4828 -121.1700 56° Northeast 474 877 24.700 1.475 Climbing FlightAware ADS-B
Sat 14:41:10 38.5200 -121.0990 56° Northeast 477 884 25.500 1.429 Climbing FlightAware ADS-B
Sat 14:41:43 38.5590 -121.0250 56° Northeast 481 892 26.200 957 Climbing FlightAware ADS-B
Sat 14:42:19 38.6040 -120.9380 56° Northeast 494 914 26.600 682 Climbing FlightAware ADS-B
Sat 14:42:27 38.6160 -120.9150 56° Northeast 480 888 26.700 889 Climbing FlightAware ADS-B
Sat 14:43:13 38.6745 -120.8020 56° Northeast 480 888 27.400 1.214 Climbing FlightAware ADS-B
Sat 14:43:51 38.7240 -120.7060 57° Northeast 503 932 28.400 1.565 Climbing FlightAware ADS-B
Sat 14:44:22 38.7626 -120.6320 56° Northeast 500 925 29.200 1.462 Climbing FlightAware ADS-B
Sat 14:45:09 38.8230 -120.5140 57° Northeast 498 922 30.300 1.271 Climbing FlightAware ADS-B
Sat 14:45:47 38.8710 -120.4210 56° Northeast 498 922 31.000 1.151 Climbing FlightAware ADS-B
Sat 14:46:22 38.9150 -120.3340 57° Northeast 499 924 31.700 930 Climbing FlightAware ADS-B
Sat 14:46:58 38.9610 -120.2440 57° Northeast 506 937 32.100 794 Climbing FlightAware ADS-B
Sat 14:47:30 39.0020 -120.1650 56° Northeast 508 941 32.600 971 Climbing FlightAware ADS-B
Sat 14:48:06 39.0480 -120.0740 57° Northeast 508 941 33.200 1.000 Climbing FlightAware ADS-B
Sat 14:48:42 39.0940 -119.9830 57° Northeast 508 941 33.800 917 Climbing FlightAware ADS-B
Sat 14:49:18 39.1400 -119.8920 57° Northeast 509 943 34.300 882 Climbing FlightAware ADS-B
Sat 14:49:50 39.1820 -119.8090 57° Northeast 511 946 34.800 706 Climbing FlightAware ADS-B
Sat 14:50:26 39.2280 -119.7170 57° Northeast 500 925 35.100 167 Climbing FlightAware ADS-B
Sat 14:51:02 39.2720 -119.6290 57° Northeast 497 921 35.000 -83 Descending FlightAware ADS-B
Sat 14:51:38 39.3170 -119.5400 57° Northeast 499 924 35.000  Level FlightAware ADS-B
Sat 14:52:10 39.3570 -119.4580 58° Northeast 501 929 35.000  Level FlightAware ADS-B
Sat 14:52:42 39.3970 -119.3790 57° Northeast 503 932 35.000  Level FlightAware ADS-B
Sat 14:53:22 39.4480 -119.2760 57° Northeast 505 935 35.000  Level FlightAware ADS-B
Sat 14:53:58 39.4930 -119.1850 57° Northeast 507 938 35.000  Level FlightAware ADS-B
Sat 14:54:34 39.5380 -119.0930 58° Northeast 508 941 35.000  Level FlightAware ADS-B
Sat 14:55:06 39.5780 -119.0100 58° Northeast 509 943 35.000  Level FlightAware ADS-B
Sat 14:55:42 39.6240 -118.9170 57° Northeast 511 946 35.000  Level FlightAware ADS-B
Sat 14:56:18 39.6690 -118.8240 58° Northeast 510 945 35.000  Level FlightAware ADS-B
Sat 14:56:54 39.7140 -118.7330 57° Northeast 509 943 35.000  Level FlightAware ADS-B
Sat 14:57:26 39.7550 -118.6480 58° Northeast 509 943 35.000  Level FlightAware ADS-B
Sat 14:58:02 39.8000 -118.5560 57° Northeast 509 943 35.000  Level FlightAware ADS-B
Sat 14:58:38 39.8450 -118.4630 58° Northeast 509 943 35.000  Level FlightAware ADS-B
Sat 14:59:10 39.8850 -118.3790 58° Northeast 508 941 35.000  Level FlightAware ADS-B
Sat 14:59:46 39.9290 -118.2870 58° Northeast 508 941 35.000  Level FlightAware ADS-B
Sat 15:00:22 39.9740 -118.1930 58° Northeast 508 941 35.000  Level FlightAware ADS-B
Sat 15:00:53 40.0120 -118.1130 58° Northeast 509 943 35.000  Level FlightAware ADS-B
Sat 15:01:32 40.0600 -118.0120 58° Northeast 509 943 35.000  Level FlightAware ADS-B
Sat 15:02:08 40.1050 -117.9190 58° Northeast 509 943 35.000  Level FlightAware ADS-B
Sat 15:02:43 40.1470 -117.8300 58° Northeast 509 943 35.000  Level FlightAware ADS-B
Sat 15:03:16 40.1890 -117.7410 58° Northeast 510 945 35.000  Level FlightAware ADS-B
Sat 15:03:54 40.2290 -117.6560 58° Northeast 510 945 35.000  Level FlightAware ADS-B
Sat 15:04:30 40.2670 -117.5760 58° Northeast 510 945 35.000  Level FlightAware ADS-B
Sat 15:05:06 40.3060 -117.4960 57° Northeast 510 945 35.000  Level FlightAware ADS-B
Sat 15:05:42 40.3440 -117.4150 58° Northeast 510 945 35.000  Level FlightAware ADS-B
Sat 15:06:18 40.3820 -117.3350 58° Northeast 510 945 35.000  Level FlightAware ADS-B
Sat 15:06:54 40.4200 -117.2540 58° Northeast 510 945 35.000  Level FlightAware ADS-B
Sat 15:07:30 40.4590 -117.1740 57° Northeast 510 945 35.000  Level FlightAware ADS-B
Sat 15:08:07 40.4980 -117.0910 58° Northeast 510 945 35.000  Level FlightAware ADS-B
Sat 15:08:43 40.5360 -117.0110 58° Northeast 510 945 35.000  Level FlightAware ADS-B
Sat 15:09:20 40.5750 -116.9280 58° Northeast 510 945 35.000  Level FlightAware ADS-B
Sat 15:09:56 40.6140 -116.8470 58° Northeast 510 945 35.000  Level FlightAware ADS-B
Sat 15:10:32 40.6520 -116.7670 58° Northeast 510 945 35.000  Level FlightAware ADS-B
Sat 15:11:08 40.6900 -116.6860 58° Northeast 510 945 35.000  Level FlightAware ADS-B
Sat 15:11:32 40.7160 -116.6320 58° Northeast 510 945 35.000  Level FlightAware ADS-B
Sat 15:12:25 40.7720 -116.5130 58° Northeast 510 945 35.000  Level FlightAware ADS-B
Sat 15:12:58 40.7784 -116.1460 89° East 503 932 35.000  Level FlightAware ADS-B
Sat 15:13:33 40.8059 -116.0430 71° East 504 933 35.000  Level FlightAware ADS-B
Sat 15:14:04 40.8292 -115.9550 71° East 507 938 35.000  Level FlightAware ADS-B
Sat 15:14:34 40.8525 -115.8660 71° East 507 938 35.000  Level FlightAware ADS-B
Sat 15:15:09 40.8792 -115.7650 71° East 507 938 35.000  Level FlightAware ADS-B
Sat 15:15:46 40.9070 -115.6580 71° East 507 938 35.000  Level FlightAware ADS-B
Sat 15:16:41 40.9487 -115.4980 71° East 505 935 35.000  Level FlightAware ADS-B
Sat 15:17:24 40.9812 -115.3710 71° East 505 935 35.000  Level FlightAware ADS-B
Sat 15:17:54 41.0039 -115.2830 71° East 506 937 35.000  Level FlightAware ADS-B
Sat 15:18:24 41.0260 -115.1970 71° East 504 933 35.000  Level FlightAware ADS-B
Sat 15:18:55 41.0494 -115.1050 71° East 504 933 35.000  Level FlightAware ADS-B
Sat 15:19:25 41.0722 -115.0160 71° East 505 935 35.000  Level FlightAware ADS-B
Sat 15:19:56 41.0943 -114.9280 72° East 506 937 35.000  Level FlightAware ADS-B
Sat 15:20:26 41.1167 -114.8400 71° East 506 937 35.000  Level FlightAware ADS-B
Sat 15:21:08 41.1477 -114.7160 72° East 506 937 35.000  Level FlightAware ADS-B
Sat 15:21:38 41.1699 -114.6270 72° East 506 937 35.000  Level FlightAware ADS-B
Sat 15:22:08 41.1917 -114.5400 72° East 506 937 35.000  Level FlightAware ADS-B
Sat 15:22:39 41.2136 -114.4510 72° East 506 937 35.000  Level FlightAware ADS-B
Sat 15:23:10 41.2366 -114.3580 72° East 507 938 35.000  Level FlightAware ADS-B
Sat 15:23:41 41.2596 -114.2650 72° East 507 938 35.000  Level FlightAware ADS-B
Sat 15:24:19 41.2876 -114.1510 72° East 509 943 35.000  Level FlightAware ADS-B
Sat 15:24:51 41.3101 -114.0580 72° East 509 943 35.000  Level FlightAware ADS-B
Sat 15:25:23 41.3335 -113.9620 72° East 509 943 35.000  Level FlightAware ADS-B
Sat 15:25:41 41.3467 -113.9070 72° East 510 945 35.000  Level FlightAware ADS-B
Sat 15:25:52 41.3540 -113.8750 73° East 509 943 35.000  Level FlightAware ADS-B
Sat 15:26:19 41.3683 -113.7950 77° East 506 937 35.000  Level FlightAware ADS-B
Sat 15:26:49 41.3813 -113.7020 79° East 506 937 35.000  Level FlightAware ADS-B
Sat 15:27:19 41.3929 -113.6110 80° East 505 935 35.000  Level FlightAware ADS-B
Sat 15:27:49 41.4048 -113.5170 80° East 505 935 35.000  Level FlightAware ADS-B
Sat 15:28:20 41.4164 -113.4240 81° East 506 937 35.000  Level FlightAware ADS-B
Sat 15:28:50 41.4276 -113.3350 80° East 505 935 35.000  Level FlightAware ADS-B
Sat 15:29:22 41.4396 -113.2400 80° East 505 935 35.000  Level FlightAware ADS-B
Sat 15:29:53 41.4518 -113.1410 81° East 505 935 35.000  Level FlightAware ADS-B
Sat 15:30:23 41.4634 -113.0470 81° East 506 937 35.000  Level FlightAware ADS-B
Sat 15:30:57 41.4762 -112.9430 81° East 505 935 35.000  Level FlightAware ADS-B
Sat 15:31:30 41.4887 -112.8400 81° East 504 933 35.000  Level FlightAware ADS-B
Sat 15:32:07 41.5022 -112.7280 81° East 502 930 35.000  Level FlightAware ADS-B
Sat 15:32:40 41.5140 -112.6290 81° East 500 925 35.000  Level FlightAware ADS-B
Sat 15:33:11 41.5253 -112.5350 81° East 499 924 35.000  Level FlightAware ADS-B
Sat 15:33:47 41.5378 -112.4260 81° East 497 921 35.000  Level FlightAware ADS-B
Sat 15:34:18 41.5473 -112.3340 82° East 497 921 35.000  Level FlightAware ADS-B
Sat 15:34:49 41.5574 -112.2370 82° East 496 919 35.000  Level FlightAware ADS-B
Sat 15:35:22 41.5676 -112.1380 82° East 495 917 35.000  Level FlightAware ADS-B
Sat 15:35:52 41.5770 -112.0470 82° East 494 914 35.000  Level FlightAware ADS-B
Sat 15:36:28 41.5879 -111.9400 82° East 494 914 35.000  Level FlightAware ADS-B
Sat 15:36:58 41.5972 -111.8490 82° East 494 914 35.000  Level FlightAware ADS-B
Sat 15:37:35 41.6086 -111.7370 82° East 493 912 35.000  Level FlightAware ADS-B
Sat 15:38:07 41.6181 -111.6420 82° East 493 912 35.000  Level FlightAware ADS-B
Sat 15:38:41 41.6283 -111.5390 82° East 493 912 35.000  Level FlightAware ADS-B
Sat 15:39:12 41.6374 -111.4460 83° East 492 911 35.000  Level FlightAware ADS-B
Sat 15:39:42 41.6460 -111.3580 83° East 491 909 35.000  Level FlightAware ADS-B
Sat 15:40:12 41.6547 -111.2670 83° East 491 909 35.000  Level FlightAware ADS-B
Sat 15:40:43 41.6635 -111.1760 83° East 490 908 35.000 98 Level FlightAware ADS-B
Sat 15:41:13 41.6721 -111.0840 83° East 491 909 35.100 800 Climbing FlightAware ADS-B
Sat 15:41:43 41.6804 -110.9960 83° East 486 900 35.800 871 Climbing FlightAware ADS-B
Sat 15:42:15 41.6895 -110.8980 83° East 485 898 36.000 194 Climbing FlightAware ADS-B
Sat 15:42:45 41.6978 -110.8090 83° East 482 893 36.000  Level FlightAware ADS-B
Sat 15:43:15 41.7059 -110.7200 83° East 482 893 36.000 -565 Level FlightAware ADS-B
Sat 15:44:10 41.7190 -110.6330 79° East 489 906 35.200 -527 Descending FlightAware ADS-B
Sat 15:44:46 41.7290 -110.5410 82° East 489 906 35.200  Level FlightAware ADS-B
Sat 15:45:22 41.7380 -110.4490 83° East 489 906 35.200  Level FlightAware ADS-B
Sat 15:45:58 41.7480 -110.3570 82° East 489 906 35.200  Level FlightAware ADS-B
Sat 15:46:35 41.7580 -110.2630 82° East 489 906 35.200  Level FlightAware ADS-B
Sat 15:47:11 41.7680 -110.1710 82° East 489 906 35.200  Level FlightAware ADS-B
Sat 15:47:47 41.7770 -110.0790 82° East 489 906 35.200  Level FlightAware ADS-B
Sat 15:48:23 41.7870 -109.9870 82° East 489 906 35.200  Level FlightAware ADS-B
Sat 15:48:59 41.7960 -109.8950 82° East 489 906 35.200  Level FlightAware ADS-B
Sat 15:49:35 41.8060 -109.8030 82° East 489 906 35.200  Level FlightAware ADS-B
Sat 15:50:11 41.8160 -109.7110 82° East 489 906 35.200  Level FlightAware ADS-B
Sat 15:50:47 41.8250 -109.6190 82° East 489 906 35.200 1.403 Level FlightAware ADS-B
Sat 15:51:28 41.8283 -109.2833 82° East 486 900 37.000 1.049 Climbing Denver Center
Sat 15:52:30 41.8439 -109.0808 84° East 485 898 37.000  Level Denver Center
Sat 15:53:31 41.8569 -108.9089 84° East 483 895 37.000  Level Denver Center
Sat 15:54:33 41.8689 -108.7358 85° East 484 896 37.000  Level Denver Center
Sat 15:55:34 41.8844 -108.5353 84° East 484 896 37.000  Level Denver Center
Sat 15:56:36 41.8967 -108.3636 84° East 482 893 37.000  Level Denver Center
Sat 15:57:37 41.9097 -108.1636 85° East 482 893 37.000  Level Denver Center
Sat 15:58:39 41.9214 -107.9906 85° East 484 896 37.000  Level Denver Center
Sat 15:59:41 41.9331 -107.8200 85° East 482 893 37.000  Level Denver Center
Sat 16:00:43 41.9458 -107.6192 85° East 482 893 37.000  Level Denver Center
Sat 16:01:44 41.9572 -107.4481 85° East 482 893 37.000  Level Denver Center
Sat 16:06:59 42.0120 -106.4790 85° East 488 904 37.000  Level FlightAware ADS-B
Sat 16:07:29 42.0170 -106.3870 86° East 489 906 37.000  Level FlightAware ADS-B
Sat 16:08:07 42.0230 -106.2710 86° East 490 908 37.000  Level FlightAware ADS-B
Sat 16:08:39 42.0280 -106.1770 86° East 490 908 37.000  Level FlightAware ADS-B
Sat 16:09:13 42.0330 -106.0730 86° East 490 908 37.000  Level FlightAware ADS-B
Sat 16:09:51 42.0390 -105.9590 86° East 490 908 37.000  Level FlightAware ADS-B
Sat 16:10:27 42.0440 -105.8480 86° East 489 906 37.000  Level FlightAware ADS-B
Sat 16:11:21 42.0520 -105.6870 86° East 485 898 37.000  Level FlightAware ADS-B
Sat 16:12:08 42.0580 -105.5620 86° East 485 898 37.000  Level FlightAware ADS-B
Sat 16:12:47 42.0630 -105.4300 87° East 487 901 37.000  Level FlightAware ADS-B
Sat 16:13:23 42.0680 -105.3190 86° East 487 901 37.000  Level FlightAware ADS-B
Sat 16:13:54 42.0720 -105.2260 87° East 487 901 37.000  Level FlightAware ADS-B
Sat 16:14:48 42.0820 -105.0770 85° East 489 906 37.000  Level FlightAware ADS-B
Sat 16:15:24 42.0890 -104.9850 84° East 489 906 37.000  Level FlightAware ADS-B
Sat 16:16:00 42.0970 -104.8920 83° East 489 906 37.000  Level FlightAware ADS-B
Sat 16:16:36 42.1040 -104.7990 84° East 489 906 37.000  Level FlightAware ADS-B
Sat 16:17:11 42.1210 -104.6310 82° East 485 898 37.000  Level FlightAware ADS-B
Sat 16:18:04 42.1340 -104.4860 83° East 484 896 37.000  Level FlightAware ADS-B
Sat 16:18:42 42.1440 -104.3630 84° East 484 896 37.000  Level FlightAware ADS-B
Sat 16:19:20 42.1520 -104.2660 84° East 484 896 37.000  Level FlightAware ADS-B
Sat 16:19:56 42.1610 -104.1740 82° East 484 896 37.000  Level FlightAware ADS-B
Sat 16:20:32 42.1690 -104.0830 83° East 484 896 37.000  Level FlightAware ADS-B
Sat 16:21:09 42.1780 -103.9880 83° East 484 896 37.000  Level FlightAware ADS-B
Sat 16:21:45 42.1860 -103.8970 83° East 484 896 37.000  Level FlightAware ADS-B
Sat 16:22:26 42.1960 -103.7130 86° East 480 888 37.000  Level FlightAware ADS-B
Sat 16:23:00 42.2040 -103.5970 85° East 479 887 37.000  Level FlightAware ADS-B
Sat 16:23:36 42.2130 -103.4850 84° East 479 887 37.000  Level FlightAware ADS-B
Sat 16:24:11 42.2200 -103.3950 84° East 479 887 37.000  Level FlightAware ADS-B
Sat 16:24:48 42.2270 -103.3020 84° East 479 887 37.000  Level FlightAware ADS-B
Sat 16:25:24 42.2340 -103.2110 84° East 479 887 37.000  Level FlightAware ADS-B
Sat 16:26:00 42.2410 -103.1200 84° East 479 887 37.000  Level FlightAware ADS-B
Sat 16:26:36 42.2480 -103.0290 84° East 479 887 37.000  Level FlightAware ADS-B
Sat 16:27:12 42.2550 -102.9380 84° East 479 887 37.000  Level FlightAware ADS-B
Sat 16:27:49 42.2630 -102.8440 83° East 479 887 37.000  Level FlightAware ADS-B
Sat 16:28:25 42.2730 -102.6430 86° East 481 892 37.000  Level FlightAware ADS-B
Sat 16:29:01 42.2810 -102.5510 83° East 481 892 37.000  Level FlightAware ADS-B
Sat 16:29:37 42.2880 -102.4600 84° East 481 892 37.000  Level FlightAware ADS-B
Sat 16:30:13 42.2950 -102.3680 84° East 481 892 37.000  Level FlightAware ADS-B
Sat 16:30:49 42.3020 -102.2770 84° East 481 892 37.000  Level FlightAware ADS-B
Sat 16:31:26 42.3090 -102.1830 84° East 481 892 37.000  Level FlightAware ADS-B
Sat 16:32:02 42.3160 -102.0910 84° East 481 892 37.000  Level FlightAware ADS-B
Sat 16:32:40 42.3240 -101.9940 84° East 481 892 37.000  Level FlightAware ADS-B
Sat 16:33:16 42.3310 -101.9030 84° East 481 892 37.000  Level FlightAware ADS-B
Sat 16:33:52 42.3380 -101.8110 84° East 481 892 37.000  Level FlightAware ADS-B
Sat 16:34:28 42.3450 -101.7200 84° East 481 892 37.000  Level FlightAware ADS-B
Sat 16:35:06 42.3530 -101.6230 84° East 481 892 37.000  Level FlightAware ADS-B
Sat 16:35:43 42.3600 -101.5290 84° East 481 892 37.000  Level FlightAware ADS-B
Sat 16:36:19 42.3670 -101.4370 84° East 481 892 37.000  Level FlightAware ADS-B
Sat 16:36:55 42.3740 -101.3450 84° East 481 892 37.000  Level FlightAware ADS-B
Sat 16:37:32 42.3810 -101.2510 84° East 481 892 37.000  Level FlightAware ADS-B
Sat 16:43:02 42.4209 -99.9825 87° East 491 909 37.000  Level FlightAware ADS-B
Sat 16:43:32 42.4249 -99.8904 87° East 491 909 37.000  Level FlightAware ADS-B
Sat 16:44:02 42.4288 -99.7988 87° East 492 911 37.000  Level FlightAware ADS-B
Sat 16:44:33 42.4328 -99.7050 87° East 493 912 37.000  Level FlightAware ADS-B
Sat 16:45:03 42.4366 -99.6118 87° East 493 912 37.000  Level FlightAware ADS-B
Sat 16:45:35 42.4405 -99.5147 87° East 493 912 37.000  Level FlightAware ADS-B
Sat 16:48:06 42.4580 -99.0522 87° East 489 906 37.000  Level FlightAware ADS-B
Sat 16:48:37 42.4614 -98.9579 87° East 489 906 37.000  Level FlightAware ADS-B
Sat 16:49:07 42.4645 -98.8650 87° East 488 904 37.000  Level FlightAware ADS-B
Sat 16:50:37 42.4747 -98.5932 87° East 489 906 37.000  Level FlightAware ADS-B
Sat 16:51:07 42.4796 -98.5014 86° East 489 906 37.000  Level FlightAware ADS-B
Sat 16:51:38 42.4846 -98.4071 86° East 490 908 37.000  Level FlightAware ADS-B
Sat 16:52:10 42.4895 -98.3088 86° East 490 908 37.000  Level FlightAware ADS-B
Sat 16:52:40 42.4938 -98.2172 86° East 490 908 37.000  Level FlightAware ADS-B
Sat 16:53:10 42.4981 -98.1252 86° East 491 909 37.000  Level FlightAware ADS-B
Sat 16:53:40 42.5023 -98.0331 86° East 491 909 37.000  Level FlightAware ADS-B
Sat 16:54:10 42.5064 -97.9408 87° East 490 908 37.000  Level FlightAware ADS-B
Sat 16:54:40 42.5104 -97.8492 87° East 489 906 37.000  Level FlightAware ADS-B
Sat 16:55:10 42.5144 -97.7572 87° East 489 906 37.000  Level FlightAware ADS-B
Sat 16:55:41 42.5183 -97.6652 87° East 488 904 37.000  Level FlightAware ADS-B
Sat 16:56:11 42.5221 -97.5737 87° East 487 901 37.000  Level FlightAware ADS-B
Sat 16:56:41 42.5260 -97.4802 87° East 487 901 37.000  Level FlightAware ADS-B
Sat 16:57:12 42.5297 -97.3864 87° East 486 900 37.000  Level FlightAware ADS-B
Sat 16:57:42 42.5333 -97.2955 87° East 486 900 37.000  Level FlightAware ADS-B
Sat 16:58:12 42.5369 -97.2043 87° East 486 900 37.000  Level FlightAware ADS-B
Sat 16:58:44 42.5405 -97.1098 87° East 486 900 37.000  Level FlightAware ADS-B
Sat 16:59:14 42.5438 -97.0186 87° East 486 900 37.000  Level FlightAware ADS-B
Sat 16:59:48 42.5476 -96.9143 87° East 486 900 37.000  Level FlightAware ADS-B
Sat 17:00:18 42.5508 -96.8231 87° East 485 898 37.000  Level FlightAware ADS-B
Sat 17:00:54 42.5545 -96.7163 87° East 485 898 37.000  Level FlightAware ADS-B
Sat 17:01:24 42.5575 -96.6255 87° East 485 898 37.000 393 Level FlightAware ADS-B
Sat 17:01:55 42.5607 -96.5308 87° East 483 895 37.400 984 Climbing FlightAware ADS-B
Sat 17:02:25 42.5636 -96.4394 88° East 479 887 38.000 1.048 Climbing FlightAware ADS-B
Sat 17:02:58 42.5667 -96.3414 88° East 477 884 38.500 857 Climbing FlightAware ADS-B
Sat 17:03:28 42.5694 -96.2508 88° East 476 882 38.900 476 Climbing FlightAware ADS-B
Sat 17:04:01 42.5723 -96.1545 88° East 474 877 39.000 95 Climbing FlightAware ADS-B
Sat 17:04:31 42.5748 -96.0645 88° East 472 874 39.000  Level FlightAware ADS-B
Sat 17:05:02 42.5773 -95.9751 88° East 473 875 39.000  Level FlightAware ADS-B
Sat 17:05:32 42.5798 -95.8847 88° East 475 880 39.000  Level FlightAware ADS-B
Sat 17:06:02 42.5821 -95.7952 88° East 476 882 39.000  Level FlightAware ADS-B
Sat 17:06:32 42.5844 -95.7053 88° East 477 884 39.000 100 Level FlightAware ADS-B
Sat 17:07:02 42.5866 -95.6159 88° East 477 884 39.100  Climbing FlightAware ADS-B
Sat 17:07:33 42.5888 -95.5254 88° East 478 885 39.000 -98 Descending FlightAware ADS-B
Sat 17:08:03 42.5909 -95.4339 88° East 478 885 39.000  Level FlightAware ADS-B
Sat 17:08:34 42.5929 -95.3431 88° East 478 885 39.000  Level FlightAware ADS-B
Sat 17:09:04 42.5948 -95.2534 88° East 478 885 39.000  Level FlightAware ADS-B
Sat 17:09:34 42.5967 -95.1626 88° East 478 885 39.000  Level FlightAware ADS-B
Sat 17:10:09 42.5988 -95.0572 88° East 479 887 39.000  Level FlightAware ADS-B
Sat 17:10:41 42.6006 -94.9621 88° East 478 885 39.000  Level FlightAware ADS-B
Sat 17:11:12 42.6023 -94.8709 89° East 477 884 39.000  Level FlightAware ADS-B
Sat 17:11:47 42.6041 -94.7655 89° East 477 884 39.000  Level FlightAware ADS-B
Sat 17:12:18 42.6057 -94.6718 89° East 477 884 39.000  Level FlightAware ADS-B
Sat 17:12:48 42.6071 -94.5820 89° East 477 884 39.000  Level FlightAware ADS-B
Sat 17:13:19 42.6084 -94.4916 89° East 476 882 39.000  Level FlightAware ADS-B
Sat 17:13:49 42.6097 -94.4026 89° East 476 882 39.000  Level FlightAware ADS-B
Sat 17:14:19 42.6109 -94.3109 89° East 476 882 39.000  Level FlightAware ADS-B
Sat 17:14:50 42.6119 -94.2198 89° East 475 880 39.000  Level FlightAware ADS-B
Sat 17:15:20 42.6127 -94.1304 89° East 475 880 39.000  Level FlightAware ADS-B
Sat 17:15:51 42.6133 -94.0382 89° East 475 880 39.000  Level FlightAware ADS-B
Sat 17:16:23 42.6140 -93.9418 89° East 475 880 39.000  Level FlightAware ADS-B
Sat 17:16:54 42.6145 -93.8522 90° East 475 880 39.000  Level FlightAware ADS-B
Sat 17:17:26 42.6151 -93.7547 89° East 475 880 39.000  Level FlightAware ADS-B
Sat 17:17:57 42.6155 -93.6653 90° East 475 880 39.000  Level FlightAware ADS-B
Sat 17:18:53 42.6160 -93.4990 90° East 475 880 39.000  Level FlightAware ADS-B
Sat 17:19:24 42.6160 -93.4060 90° East 475 880 39.000  Level FlightAware ADS-B
Sat 17:20:00 42.6170 -93.2990 89° East 475 880 39.000  Level FlightAware ADS-B
Sat 17:20:30 42.6170 -93.2110 90° East 476 882 39.000  Level FlightAware ADS-B
Sat 17:21:13 42.6170 -93.0830 90° East 477 884 39.000  Level FlightAware ADS-B
Sat 17:21:42 42.6170 -92.9970 90° East 478 885 39.000  Level FlightAware ADS-B
Sat 17:22:20 42.6160 -92.8820 91° East 478 885 39.000  Level FlightAware ADS-B
Sat 17:22:57 42.6160 -92.7700 90° East 479 887 39.000  Level FlightAware ADS-B
Sat 17:23:33 42.6160 -92.6620 90° East 479 887 39.000  Level FlightAware ADS-B
Sat 17:24:05 42.6150 -92.5660 91° East 480 888 39.000  Level FlightAware ADS-B
Sat 17:24:40 42.6150 -92.4630 90° East 480 888 39.000  Level FlightAware ADS-B
Sat 17:25:17 42.6140 -92.3500 91° East 480 888 39.000  Level FlightAware ADS-B
Sat 17:25:52 42.6130 -92.2470 91° East 480 888 39.000  Level FlightAware ADS-B
Sat 17:26:25 42.6120 -92.1460 91° East 480 888 39.000  Level FlightAware ADS-B
Sat 17:27:02 42.6110 -92.0370 91° East 481 892 39.000  Level FlightAware ADS-B
Sat 17:27:32 42.6100 -91.9460 91° East 483 895 39.000  Level FlightAware ADS-B
Sat 17:28:11 42.6090 -91.8260 91° East 484 896 39.000  Level FlightAware ADS-B
Sat 17:28:46 42.6080 -91.7220 91° East 484 896 39.000  Level FlightAware ADS-B
Sat 17:29:23 42.6060 -91.6080 91° East 485 898 39.000  Level FlightAware ADS-B
Sat 17:29:53 42.6050 -91.5170 91° East 486 900 39.000  Level FlightAware ADS-B
Sat 17:30:29 42.6030 -91.4090 91° East 486 900 39.000  Level FlightAware ADS-B
Sat 17:31:06 42.6010 -91.3020 91° East 487 901 39.000  Level FlightAware ADS-B
Sat 17:31:41 42.6000 -91.1900 91° East 487 901 39.000  Level FlightAware ADS-B
Sat 17:32:15 42.5980 -91.0890 92° East 487 901 39.000  Level FlightAware ADS-B
Sat 17:32:51 42.5960 -90.9800 91° East 487 901 39.000  Level FlightAware ADS-B
Sat 17:33:27 42.5940 -90.8660 91° East 487 901 39.000  Level FlightAware ADS-B
Sat 17:33:59 42.5920 -90.7670 92° East 487 901 39.000  Level FlightAware ADS-B
Sat 17:34:43 42.5910 -90.6350 91° East 484 896 39.000  Level FlightAware ADS-B
Sat 17:35:17 42.5920 -90.5310 89° East 484 896 39.000  Level FlightAware ADS-B
Sat 17:35:55 42.5940 -90.4170 89° East 484 896 39.000  Level FlightAware ADS-B
Sat 17:36:27 42.5940 -90.3180 90° East 485 898 39.000  Level FlightAware ADS-B
Sat 17:37:01 42.5950 -90.2160 89° East 484 896 39.000  Level FlightAware ADS-B
Sat 17:37:39 42.5950 -90.1030 90° East 483 895 39.000  Level FlightAware ADS-B
Sat 17:38:15 42.5950 -89.9930 90° East 481 892 39.000  Level FlightAware ADS-B
Sat 17:38:46 42.5950 -89.9010 90° East 481 892 39.000  Level FlightAware ADS-B
Sat 17:39:20 42.5950 -89.7970 90° East 480 888 39.000  Level FlightAware ADS-B
Sat 17:39:59 42.5950 -89.7740 90° East 480 888 39.000  Level FlightAware ADS-B
Sat 17:40:29 42.5950 -89.6800 90° East 480 888 39.000  Level FlightAware ADS-B
Sat 17:41:07 42.5950 -89.4780 90° East 479 887 39.000  Level FlightAware ADS-B
Sat 17:41:43 42.5950 -89.3690 90° East 479 887 39.000  Level FlightAware ADS-B
Sat 17:42:19 42.5940 -89.2650 91° East 479 887 39.000  Level FlightAware ADS-B
Sat 17:42:51 42.5940 -89.1660 90° East 479 887 39.000  Level FlightAware ADS-B
Sat 17:43:27 42.5930 -89.0610 91° East 478 885 39.000  Level FlightAware ADS-B
Sat 17:44:03 42.5930 -88.9520 90° East 477 884 39.000  Level FlightAware ADS-B
Sat 17:44:35 42.5920 -88.8540 91° East 477 884 39.000  Level FlightAware ADS-B
Sat 17:45:11 42.5910 -88.7480 91° East 477 884 39.000  Level FlightAware ADS-B
Sat 17:45:49 42.5900 -88.6400 91° East 477 884 39.000  Level FlightAware ADS-B
Sat 17:46:25 42.5890 -88.5280 91° East 477 884 39.000  Level FlightAware ADS-B
Sat 17:46:57 42.5880 -88.4360 91° East 477 884 39.000  Level FlightAware ADS-B
Sat 17:47:33 42.5870 -88.3260 91° East 476 882 39.000  Level FlightAware ADS-B
Sat 17:48:09 42.5850 -88.2170 91° East 476 882 39.000  Level FlightAware ADS-B
Sat 17:48:45 42.5840 -88.1150 91° East 476 882 39.000  Level FlightAware ADS-B
Sat 17:49:17 42.5820 -88.0160 92° East 476 882 39.000  Level FlightAware ADS-B
Sat 17:49:54 42.5810 -87.9050 91° East 475 880 39.000  Level FlightAware ADS-B
Sat 17:50:30 42.5790 -87.7990 91° East 468 867 39.000  Level FlightAware ADS-B
Sat 17:51:00 42.5770 -87.7140 92° East 463 858 39.000  Level FlightAware ADS-B
Sat 17:51:36 42.5760 -87.6080 91° East 459 850 39.000  Level FlightAware ADS-B
Sat 17:52:15 42.5740 -87.5030 91° East 459 850 39.000  Level FlightAware ADS-B
Sat 17:52:50 42.5710 -87.3980 92° East 461 855 39.000 90 Level FlightAware ADS-B
Sat 17:53:22 42.5690 -87.3030 92° East 461 855 39.100  Climbing FlightAware ADS-B
Sat 17:53:58 42.5670 -87.2040 92° East 463 858 39.000 -83 Descending FlightAware ADS-B
Sat 17:54:34 42.5650 -87.0960 91° East 465 861 39.000  Level FlightAware ADS-B
Sat 17:55:11 42.5620 -86.9910 92° East 466 863 39.000  Level FlightAware ADS-B
Sat 17:55:40 42.5600 -86.9060 92° East 467 864 39.000 94 Level FlightAware ADS-B
Sat 17:56:15 42.5580 -86.8060 92° East 469 869 39.100  Climbing FlightAware ADS-B
Sat 17:56:52 42.5550 -86.6930 92° East 470 871 39.000 -76 Descending FlightAware ADS-B
Sat 17:57:34 42.5520 -86.5680 92° East 471 872 39.000  Level FlightAware ADS-B
Sat 17:58:04 42.5490 -86.4790 93° East 473 875 39.000  Level FlightAware ADS-B
Sat 17:58:42 42.5460 -86.3680 92° East 474 877 39.000  Level FlightAware ADS-B
Sat 17:59:20 42.5420 -86.2550 93° East 475 880 39.000  Level FlightAware ADS-B
Sat 17:59:56 42.5390 -86.1480 92° East 475 880 39.000  Level FlightAware ADS-B
Sat 18:00:30 42.5360 -86.0510 92° East 475 880 39.000  Level FlightAware ADS-B
Sat 18:01:04 42.5330 -85.9460 92° East 475 880 39.000  Level FlightAware ADS-B
Sat 18:01:40 42.5290 -85.8400 93° East 476 882 39.000  Level FlightAware ADS-B
Sat 18:02:18 42.5250 -85.7260 93° East 476 882 39.000  Level FlightAware ADS-B
Sat 18:02:50 42.5220 -85.6310 92° East 476 882 39.000  Level FlightAware ADS-B
Sat 18:03:26 42.5180 -85.5220 93° East 477 884 39.000  Level FlightAware ADS-B
Sat 18:04:02 42.5140 -85.4160 93° East 477 884 39.000  Level FlightAware ADS-B
Sat 18:04:34 42.5100 -85.3210 93° East 478 885 39.000  Level FlightAware ADS-B
Sat 18:05:10 42.5060 -85.2130 93° East 479 887 39.000  Level FlightAware ADS-B
Sat 18:05:47 42.5010 -85.1020 93° East 480 888 39.000  Level FlightAware ADS-B
Sat 18:06:22 42.4970 -84.9980 93° East 480 888 39.000  Level FlightAware ADS-B
Sat 18:06:58 42.4930 -84.8940 93° East 480 888 39.000  Level FlightAware ADS-B
Sat 18:07:31 42.4880 -84.7910 94° East 482 893 39.000  Level FlightAware ADS-B
Sat 18:08:07 42.4820 -84.6870 94° East 483 895 39.000  Level FlightAware ADS-B
Sat 18:08:39 42.4760 -84.5830 94° East 485 898 39.000  Level FlightAware ADS-B
Sat 18:09:12 42.4690 -84.4840 95° East 487 901 39.000  Level FlightAware ADS-B
Sat 18:09:51 42.4620 -84.3680 95° East 489 906 39.000  Level FlightAware ADS-B
Sat 18:10:24 42.4560 -84.2740 95° East 490 908 39.000  Level FlightAware ADS-B
Sat 18:11:00 42.4490 -84.1600 95° East 492 911 39.000  Level FlightAware ADS-B
Sat 18:11:34 42.4420 -84.0500 95° East 498 922 39.000  Level FlightAware ADS-B
Sat 18:12:09 42.4350 -83.9450 95° East 502 930 39.000  Level FlightAware ADS-B
Sat 18:12:45 42.4270 -83.8310 95° East 505 935 39.000  Level FlightAware ADS-B
Sat 18:13:22 42.4200 -83.7170 95° East 506 937 39.000  Level FlightAware ADS-B
Sat 18:13:58 42.4120 -83.6000 95° East 503 932 39.000  Level FlightAware ADS-B
Sat 18:14:32 42.4040 -83.4920 96° East 501 929 39.000  Level FlightAware ADS-B
Sat 18:15:08 42.3970 -83.3860 95° East 501 929 39.000  Level FlightAware ADS-B
Sat 18:15:40 42.3890 -83.2820 96° East 497 921 39.000  Level FlightAware ADS-B
Sat 18:16:16 42.3810 -83.1700 95° East 495 917 39.000  Level FlightAware ADS-B
Sat 18:16:52 42.3730 -83.0660 96° East 493 912 39.000  Level FlightAware ADS-B
Sat 18:17:28 42.3650 -82.9530 95° East 491 909 39.000  Level FlightAware ADS-B
Sat 18:18:00 42.3580 -82.8580 96° East 490 908 39.000  Level FlightAware ADS-B
Sat 18:18:36 42.3490 -82.7430 96° East 490 908 39.000  Level FlightAware ADS-B
Sat 18:19:12 42.3410 -82.6370 96° East 490 908 39.000  Level FlightAware ADS-B
Sat 18:19:44 42.3330 -82.5400 96° East 490 908 39.000  Level FlightAware ADS-B
Sat 18:20:21 42.3240 -82.4270 96° East 490 908 39.000  Level FlightAware ADS-B
Sat 18:20:57 42.3160 -82.3190 96° East 490 908 39.000  Level FlightAware ADS-B
Sat 18:21:31 42.3070 -82.2160 97° East 491 909 39.000  Level FlightAware ADS-B
Sat 18:22:02 42.3010 -82.1370 96° East 491 909 39.000  Level FlightAware ADS-B
Sat 18:22:38 42.2910 -82.0210 97° East 492 911 39.000  Level FlightAware ADS-B
Sat 18:23:13 42.2830 -81.9210 96° East 492 911 39.000  Level FlightAware ADS-B
Sat 18:23:50 42.2730 -81.8030 96° East 493 912 39.000  Level FlightAware ADS-B
Sat 18:24:22 42.2640 -81.7070 97° East 494 914 39.000  Level FlightAware ADS-B
Sat 18:24:56 42.2560 -81.6060 96° East 496 919 39.000  Level FlightAware ADS-B
Sat 18:25:38 42.2440 -81.4770 97° East 498 922 39.000  Level FlightAware ADS-B
Sat 18:26:07 42.2370 -81.3890 96° East 500 925 39.000  Level FlightAware ADS-B
Sat 18:26:45 42.2260 -81.2700 97° East 502 930 39.000  Level FlightAware ADS-B
Sat 18:27:18 42.2160 -81.1670 97° East 503 932 39.000  Level FlightAware ADS-B
Sat 18:28:02 42.2040 -81.0260 97° East 503 932 39.000  Level FlightAware ADS-B
Sat 18:28:32 42.1950 -80.9350 98° East 502 930 39.000  Level FlightAware ADS-B
Sat 18:29:12 42.1830 -80.8050 97° East 503 932 39.000  Level FlightAware ADS-B
Sat 18:29:52 42.1720 -80.6870 97° East 502 930 39.000  Level FlightAware ADS-B
Sat 18:30:24 42.1620 -80.5860 98° East 502 930 39.000  Level FlightAware ADS-B
Sat 18:31:05 42.1510 -80.4690 97° East 501 929 39.000  Level FlightAware ADS-B
Sat 18:31:38 42.1400 -80.3620 98° East 501 929 39.000  Level FlightAware ADS-B
Sat 18:32:11 42.1300 -80.2600 97° East 500 925 39.000  Level FlightAware ADS-B
Sat 18:32:49 42.1190 -80.1430 97° East 500 925 39.000  Level FlightAware ADS-B
Sat 18:33:22 42.1080 -80.0380 98° East 499 924 39.000  Level FlightAware ADS-B
Sat 18:34:01 42.0960 -79.9220 98° East 499 924 39.000  Level FlightAware ADS-B
Sat 18:34:35 42.0860 -79.8210 98° East 498 922 39.000  Level FlightAware ADS-B
Sat 18:35:18 42.0700 -79.6670 98° East 497 921 39.000  Level FlightAware ADS-B
Sat 18:35:54 42.0580 -79.5570 98° East 496 919 39.000  Level FlightAware ADS-B
Sat 18:36:26 42.0480 -79.4610 98° East 496 919 39.000  Level FlightAware ADS-B
Sat 18:37:02 42.0360 -79.3500 98° East 497 921 39.000  Level FlightAware ADS-B
Sat 18:37:38 42.0240 -79.2410 98° East 498 922 39.000  Level FlightAware ADS-B
Sat 18:38:14 42.0120 -79.1310 98° East 500 925 39.000  Level FlightAware ADS-B
Sat 18:38:46 42.0020 -79.0320 98° East 500 925 39.000  Level FlightAware ADS-B
Sat 18:39:22 41.9890 -78.9220 99° East 501 929 39.000  Level FlightAware ADS-B
Sat 18:39:58 41.9770 -78.8090 98° East 502 930 39.000  Level FlightAware ADS-B
Sat 18:40:35 41.9640 -78.6970 99° East 503 932 39.000  Level FlightAware ADS-B
Sat 18:41:06 41.9530 -78.6000 99° East 503 932 39.000  Level FlightAware ADS-B
Sat 18:41:44 41.9400 -78.4840 99° East 503 932 39.000  Level FlightAware ADS-B
Sat 18:42:18 41.9270 -78.3770 99° East 502 930 39.000  Level FlightAware ADS-B
Sat 18:42:52 41.9160 -78.2790 99° East 504 933 39.000  Level FlightAware ADS-B
Sat 18:43:34 41.9000 -78.1440 99° East 505 935 39.000  Level FlightAware ADS-B
Sat 18:44:11 41.8870 -78.0330 99° East 505 935 39.000  Level FlightAware ADS-B
Sat 18:44:44 41.8740 -77.9290 99° East 505 935 39.000  Level FlightAware ADS-B
Sat 18:45:20 41.8550 -77.8180 103° East 508 941 39.000 83 Level FlightAware ADS-B
Sat 18:45:56 41.8290 -77.7120 108° East 508 941 39.100  Climbing FlightAware ADS-B
Sat 18:46:30 41.8010 -77.6090 110° East 507 938 39.000 -86 Descending FlightAware ADS-B
Sat 18:47:06 41.7730 -77.5040 110° East 505 935 39.000  Level FlightAware ADS-B
Sat 18:47:37 41.7490 -77.4150 110° East 505 935 39.000 86 Level FlightAware ADS-B
Sat 18:48:16 41.7180 -77.2990 110° East 503 932 39.100  Climbing FlightAware ADS-B
Sat 18:48:52 41.6900 -77.1940 110° East 503 932 39.000 -88 Descending FlightAware ADS-B
Sat 18:49:24 41.6650 -77.0990 109° East 502 930 39.000  Level FlightAware ADS-B
Sat 18:50:00 41.6360 -76.9950 110° East 502 930 39.000  Level FlightAware ADS-B
Sat 18:50:36 41.6080 -76.8910 110° East 503 932 39.000  Level FlightAware ADS-B
Sat 18:51:04 41.5860 -76.8100 110° East 503 932 39.000  Level FlightAware ADS-B
Sat 18:51:44 41.5540 -76.6930 110° East 503 932 39.000  Level FlightAware ADS-B
Sat 18:52:20 41.5250 -76.5870 110° East 503 932 39.000  Level FlightAware ADS-B
Sat 18:52:57 41.4950 -76.4810 111° Southeast 504 933 39.000  Level FlightAware ADS-B
Sat 18:53:27 41.4710 -76.3920 110° East 504 933 39.000 -462 Level FlightAware ADS-B
Sat 18:54:02 41.4420 -76.2890 111° Southeast 505 935 38.500 -1.808 Descending FlightAware ADS-B
Sat 18:54:40 41.4110 -76.1790 111° Southeast 507 938 36.800 -2.789 Descending FlightAware ADS-B
Sat 18:55:13 41.3840 -76.0820 110° East 508 941 35.200 -2.829 Descending FlightAware ADS-B
Sat 18:55:50 41.3540 -75.9770 111° Southeast 509 943 33.500 -3.041 Descending FlightAware ADS-B
Sat 18:56:26 41.3240 -75.8700 110° East 512 948 31.500 -3.353 Descending FlightAware ADS-B
Sat 18:56:58 41.2970 -75.7760 111° Southeast 516 956 29.700 -3.130 Descending FlightAware ADS-B
Sat 18:57:35 41.2670 -75.6740 111° Southeast 512 948 27.900 -2.795 Descending FlightAware ADS-B
Sat 18:58:11 41.2340 -75.5710 113° Southeast 503 932 26.300 -2.743 Descending FlightAware ADS-B
Sat 18:58:45 41.2000 -75.4710 114° Southeast 496 919 24.700 -2.647 Descending FlightAware ADS-B
Sat 18:59:19 41.1680 -75.3760 114° Southeast 489 906 23.300 -1.457 Descending FlightAware ADS-B
Sat 18:59:55 41.1360 -75.2810 114° Southeast 482 893 23.000 -250 Descending FlightAware ADS-B
Sat 19:00:31 41.1020 -75.1810 114° Southeast 480 888 23.000  Level FlightAware ADS-B
Sat 19:01:06 41.0710 -75.0880 114° Southeast 482 893 23.000  Level FlightAware ADS-B
Sat 19:01:39 41.0400 -74.9980 115° Southeast 483 895 23.000  Level FlightAware ADS-B
Sat 19:02:15 41.0070 -74.8980 114° Southeast 484 896 23.000 -167 Level FlightAware ADS-B
Sat 19:02:51 40.9880 -74.7970 104° East 483 895 22.800 -824 Descending FlightAware ADS-B
Sat 19:03:06 40.9825 -74.7532 99° East 484 896 22.300 -2.280 Descending FlightAware ADS-B
Sat 19:03:41 40.9717 -74.6528 98° East 473 875 20.900 -2.182 Descending FlightAware ADS-B
Sat 19:04:34 40.9560 -74.5060 98° East 449 832 19.100 -1.295 Descending FlightAware ADS-B
Sat 19:05:09 40.9460 -74.4140 98° East 405 750 19.000 -85 Descending FlightAware ADS-B
Sat 19:05:45 40.9388 -74.3313 97° East 370 686 19.000  Level FlightAware ADS-B
Sat 19:06:02 40.9425 -74.2925 83° East 360 666 19.000  Level FlightAware ADS-B
Sat 19:06:37 40.9480 -74.2160 85° East 359 665 19.000  Level FlightAware ADS-B
Sat 19:06:43 40.9455 -74.2038 105° East 361 668 19.000  Level FlightAware ADS-B
Sat 19:06:56 40.9362 -74.1785 116° Southeast 361 668 19.000  Level FlightAware ADS-B
Sat 19:07:21 40.9074 -74.1407 135° Southeast 358 663 19.000  Level FlightAware ADS-B
Sat 19:07:54 40.8577 -74.1075 153° Southeast 356 660 19.000 -476 Level FlightAware ADS-B
Sat 19:08:24 40.8135 -74.0794 154° Southeast 350 649 18.500 -1.770 Descending FlightAware ADS-B
Sat 19:08:55 40.7696 -74.0513 154° Southeast 344 637 17.200 -2.582 Descending FlightAware ADS-B
Sat 19:09:43 40.7030 -74.0080 154° Southeast 330 612 15.100 -2.530 Descending FlightAware ADS-B
Sat 19:10:18 40.6560 -73.9780 154° Southeast 330 612 13.700 -2.118 Descending FlightAware ADS-B
Sat 19:10:34 40.6327 -73.9638 155° Southeast 329 610 13.300 -1.913 Descending FlightAware ADS-B
Sat 19:11:27 40.5620 -73.9210 155° Southeast 311 576 11.500 -2.200 Descending FlightAware ADS-B
Sat 19:12:04 40.5130 -73.8930 157° South 299 554 10.000 -2.400 Descending FlightAware ADS-B
Sat 19:12:12 40.5040 -73.8860 149° Southeast 298 552 9.700 -2.100 Descending FlightAware ADS-B
Sat 19:12:24 40.4920 -73.8720 138° Southeast 296 549 9.300 -2.100 Descending FlightAware ADS-B
Sat 19:12:32 40.4860 -73.8590 121° Southeast 294 544 9.000 -2.100 Descending FlightAware ADS-B
Sat 19:12:44 40.4780 -73.8410 120° Southeast 295 546 8.600 -1.667 Descending FlightAware ADS-B
Sat 19:13:08 40.4630 -73.8020 117° Southeast 294 544 8.000 -1.059 Descending FlightAware ADS-B
Sat 19:13:18 40.4570 -73.7860 116° Southeast 293 542 8.000  Level FlightAware ADS-B
Sat 19:13:40 40.4430 -73.7510 118° Southeast 292 541 8.000  Level FlightAware ADS-B
Sat 19:14:01 40.4310 -73.7190 116° Southeast 291 539 8.000  Level FlightAware ADS-B
Sat 19:14:17 40.4210 -73.6930 117° Southeast 289 536 8.000  Level FlightAware ADS-B
Sat 19:14:36 40.4090 -73.6630 118° Southeast 289 536 8.000  Level FlightAware ADS-B
Sat 19:14:46 40.4040 -73.6490 115° Southeast 289 536 8.000  Level FlightAware ADS-B
Sat 19:15:10 40.3920 -73.6080 111° Southeast 289 536 8.000  Level FlightAware ADS-B
Sat 19:15:34 40.4000 -73.5710 74° East 286 529 8.000  Level FlightAware ADS-B
Sat 19:15:38 40.4030 -73.5660 52° Northeast 285 528 8.000  Level FlightAware ADS-B
Sat 19:15:47 40.4130 -73.5550 40° Northeast 284 526 8.000  Level FlightAware ADS-B
Sat 19:16:02 40.4310 -73.5420 29° Northeast 284 526 8.000 -182 Level FlightAware ADS-B
Sat 19:16:20 40.4490 -73.5300 27° Northeast 284 526 7.900 -750 Descending FlightAware ADS-B
Sat 19:16:42 40.4760 -73.5110 28° Northeast 280 518 7.500 -1.176 Descending FlightAware ADS-B
Sat 19:17:11 40.5100 -73.4880 27° Northeast 279 517 6.900 -1.227 Descending FlightAware ADS-B
Sat 19:17:26 40.5250 -73.4770 29° Northeast 278 515 6.600 -1.371 Descending FlightAware ADS-B
Sat 19:17:46 40.5510 -73.4600 26° Northeast 276 512 6.100 -1.350 Descending FlightAware ADS-B
Sat 19:18:06 40.5710 -73.4470 26° Northeast 274 507 5.700 -1.263 Descending FlightAware ADS-B
Sat 19:18:24 40.5910 -73.4330 28° Northeast 272 504 5.300 -1.333 Descending FlightAware ADS-B
Sat 19:18:51 40.6240 -73.4130 25° Northeast 268 496 4.700 -1.231 Descending FlightAware ADS-B
Sat 19:19:03 40.6380 -73.4080 15° North 267 494 4.500 -1.111 Descending FlightAware ADS-B
Sat 19:19:18 40.6570 -73.4050 North 265 491 4.200 -857 Descending FlightAware ADS-B
Sat 19:19:38 40.6810 -73.4010 North 263 488 4.000 -375 Descending FlightAware ADS-B
Sat 19:19:50 40.6960 -73.3990 North 263 488 4.000  Level FlightAware ADS-B
Sat 19:20:14 40.7250 -73.3940 North 264 489 4.000  Level FlightAware ADS-B
Sat 19:20:23 40.7350 -73.3930 North 264 489 4.000  Level FlightAware ADS-B
Sat 19:20:46 40.7610 -73.4070 338° Northwest 262 486 4.000  Level FlightAware ADS-B
Sat 19:20:54 40.7670 -73.4160 311° West 261 483 4.000  Level FlightAware ADS-B
Sat 19:21:15 40.7820 -73.4440 305° West 256 475 4.000  Level FlightAware ADS-B
Sat 19:21:31 40.7920 -73.4630 305° West 242 447 4.000 -171 Level FlightAware ADS-B
Sat 19:21:50 40.8040 -73.4850 306° West 225 417 3.900 -343 Descending FlightAware ADS-B
Sat 19:22:06 40.8140 -73.5030 306° West 219 406 3.800 -667 Descending FlightAware ADS-B
Sat 19:22:26 40.8260 -73.5250 306° West 214 396 3.500 -857 Descending FlightAware ADS-B
Sat 19:22:34 40.8280 -73.5360 284° West 214 396 3.400 -923 Descending FlightAware ADS-B
Sat 19:22:52 40.8300 -73.5590 277° West 211 391 3.100 -857 Descending FlightAware ADS-B
Sat 19:23:02 40.8290 -73.5700 263° West 209 388 3.000 -240 Descending FlightAware ADS-B
Sat 19:23:17 40.8250 -73.5880 254° West 210 389 3.000  Level FlightAware ADS-B
Sat 19:23:27 40.8210 -73.6000 246° West 211 391 3.000  Level FlightAware ADS-B
Sat 19:23:43 40.8110 -73.6160 230° Southwest 206 381 3.000  Level FlightAware ADS-B
Sat 19:23:55 40.8030 -73.6270 226° Southwest 196 364 3.000  Level FlightAware ADS-B
Sat 19:24:20 40.7870 -73.6440 219° Southwest 172 319 3.000 -267 Level FlightAware ADS-B
Sat 19:24:40 40.7730 -73.6550 211° Southwest 171 317 2.800 -563 Descending FlightAware ADS-B
Sat 19:24:52 40.7650 -73.6610 210° Southwest 172 319 2.700 -833 Descending FlightAware ADS-B
Sat 19:25:16 40.7490 -73.6740 212° Southwest 168 311 2.300 -955 Descending FlightAware ADS-B
Sat 19:25:36 40.7350 -73.6840 208° Southwest 167 309 2.000 -1.000 Descending FlightAware ADS-B
Sat 19:25:46 40.7280 -73.6900 213° Southwest 164 304 1.800 -857 Descending FlightAware ADS-B
Sat 19:26:11 40.7130 -73.7020 211° Southwest 150 278 1.500 -667 Descending FlightAware ADS-B
Sat 19:26:31 40.7020 -73.7100 209° Southwest 126 233 1.300 -600 Descending FlightAware ADS-B
Sat 19:26:51 40.6920 -73.7180 211° Southwest 118 219 1.100 -667 Descending FlightAware ADS-B
Sat 19:27:07 40.6850 -73.7240 213° Southwest 119 220 900 -649 Descending FlightAware ADS-B
Sat 19:27:28 40.6750 -73.7320 211° Southwest 119 220 700 -585 Descending FlightAware ADS-B
Sat 19:27:48 40.6650 -73.7390 208° Southwest 119 220 500 -514 Descending FlightAware ADS-B
Sat 19:28:03 40.6580 -73.7450 213° Southwest 121 224 400 -686 Descending FlightAware ADS-B
Sat 19:28:23 40.6480 -73.7520 208° Southwest 121 224 100 -900 Descending FlightAware ADS-B
Sat 19:28:45 40.6380 -73.7600 211° Southwest 105 195 -273 Descending FlightAware ADS-B

Login

Don't have an account? Register now (free) for customized features, flight alerts, and more!